KBVY/BVY METAR and TAF weather

Enter ICAO airport designator
Station Type Date Time Source
KBVY METAR 2018/07/19 06:53 UTC NOAA

KBVY 190653Z AUTO 35006KT 10SM CLR 13/10 A3000 RMK AO2 SLP154 T01280100


Station Type Date Time Source
KBVY Decoded METAR 2018/07/19 06:53 UTC NOAA

BEVERLY MUNICIPAL AIRPORT, MA, United States (KBVY) 42-35N 070-55W 28M
Jul 19, 2018 - 02:53 AM EDT / 2018.07.19 0653 UTC
Wind: from the N (350 degrees) at 7 MPH (6 KT):0
Visibility: 10 mile(s):0
Sky conditions: clear
Temperature: 55.0 F (12.8 C)
Dew Point: 50.0 F (10.0 C)
Relative Humidity: 83%
Pressure (altimeter): 30 in. Hg (1015 hPa)
ob: KBVY 190653Z AUTO 35006KT 10SM CLR 13/10 A3000 RMK AO2 SLP154 T01280100
cycle: 7

Station Type Date Time Source
KBVY TAF UTC NOAA

Error!


Example: see airport list